This demonstration page uses our WeatherBlox Daily Observations layout. Learn more.

Left ArrowRight Arrow

Hourly Observations for August 6, 2015

Temp ( °F °C ) Dew Point ( °F °C ) Humidity (%) Winds ( mph kmh ) Pressure ( in mb ) Visibility ( mi km ) Precip ( " mm )
12:54 am 00:54 Clear with Mist and Fog 70 21.1 68 20 93 93 SE 5 7 29.92 1013 6 9.65604 0 0
1:54 am 01:54 Clear with Mist and Fog 69 20.6 67 19.4 93 93 S 5 7 29.9 1013 6 9.65604 0 0
2:54 am 02:54 Clear with Mist and Fog 68 20 67 19.4 96 96 S 3 6 29.91 1013 5 8.0467 0 0
3:54 am 03:54 Clear with Mist and Fog 67 19.4 66 18.9 97 97 S 3 6 29.9 1012 4 6.43736 0 0
4:54 am 04:54 Clear with Mist and Fog 67 19.4 66 18.9 97 97 SSE 3 6 29.91 1013 6 9.65604 0 0
5:54 am 05:54 Clear with Mist and Fog 66 18.9 65 18.3 96 96 SSE 3 6 29.9 1013 6 9.65604 0 0
6:54 am 06:54 Sunny with Mist and Fog 66 18.9 64 17.8 93 93 Calm 29.92 1013 4 6.43736 0 0
7:54 am 07:54 Sunny with Mist and Fog 69 20.6 66 18.9 90 90 Calm 29.93 1014 5 8.0467 0 0
8:54 am 08:54 Sunny 71 21.7 66 18.9 84 84 W 5 7 29.97 1015 7 11.26538 0 0
9:54 am 09:54 Sunny with Mist and Fog 71 21.7 67 19.4 87 87 SSE 3 6 29.96 1014 6 9.65604 0 0
10:54 am 10:54 Mostly Sunny 73 22.8 67 19.4 81 81 ESE 7 11 29.91 1013 8 12.87472 0 0
11:54 am 11:54 Sunny 74 23.3 67 19.4 79 79 ESE 8 13 29.9 1013 9 14.48406 0 0
12:54 pm 12:54 Mostly Sunny 75 23.9 68 20 79 79 W 7 11 29.97 1015 9 14.48406 0 0
1:54 pm 13:54 Mostly Cloudy with Light Rain 73 22.8 69 20.6 87 87 S 5 7 29.87 1011 8 12.87472 0.03 0.762
2:54 pm 14:54 Sunny 76 24.4 70 21.1 82 82 S 15 24 29.8 1009 9 14.48406 0 0.0254
3:54 pm 15:54 Sunny 80 26.7 69 20.6 69 69 S 15 24 29.78 1009 10 16.0934 0 0
4:54 pm 16:54 Sunny 81 27.2 68 20 65 65 SSW 15 24 29.81 1009 10 16.0934 0 0
5:54 pm 17:54 Partly Cloudy 81 27.2 68 20 65 65 WSW 10 17 29.83 1010 9 14.48406 0 0
6:54 pm 18:54 Mostly Sunny 80 26.7 68 20 67 67 SW 8 13 29.83 1010 8 12.87472 0 0
7:54 pm 19:54 Sunny 77 25 68 20 74 74 S 8 13 29.82 1010 8 12.87472 0 0
8:54 pm 20:54 Clear 73 22.8 68 20 84 84 S 8 13 29.83 1010 7 11.26538 0 0
9:54 pm 21:54 Mostly Clear 72 22.2 68 20 87 87 S 6 9 29.84 1011 7 11.26538 0 0
10:54 pm 22:54 Cloudy 73 22.8 69 20.6 87 87 S 6 9 29.85 1011 7 11.26538 0 0
11:54 pm 23:54 Mostly Cloudy 72 22.2 68 20 87 87 S 6 9 29.84 1011 7 11.26538 0 0

Powered by AerisWeather